createdAt,value
2019-02-22T00:00:00.819Z,25.90
2019-02-22T00:02:48.870Z,28.07
2019-02-22T00:05:36.855Z,29.70
2019-02-22T00:08:24.849Z,26.37
2019-02-22T00:11:12.832Z,26.40
2019-02-22T00:14:00.831Z,27.17
2019-02-22T00:16:48.826Z,25.27
2019-02-22T00:19:36.823Z,25.30
2019-02-22T00:22:24.805Z,25.33
2019-02-22T00:25:05.207Z,25.47
2019-02-22T00:27:46.022Z,29.37
2019-02-22T00:30:26.498Z,26.80
2019-02-22T00:33:07.267Z,27.60
2019-02-22T00:35:48.072Z,29.27
2019-02-22T00:38:28.827Z,29.63
2019-02-22T00:41:09.646Z,28.97
2019-02-22T00:43:50.328Z,30.97
2019-02-22T00:46:30.931Z,29.80
2019-02-22T00:49:11.333Z,29.03
2019-02-22T00:51:52.281Z,29.90
2019-02-22T00:54:32.897Z,28.40
2019-02-22T00:57:13.610Z,26.60
2019-02-22T00:59:54.689Z,28.47
2019-02-22T01:02:35.735Z,28.63
2019-02-22T01:05:16.539Z,25.37
2019-02-22T01:07:57.279Z,26.77
2019-02-22T01:10:38.383Z,27.00
2019-02-22T01:13:19.025Z,28.30
2019-02-22T01:15:59.991Z,28.77
2019-02-22T01:18:41.205Z,27.83
2019-02-22T01:21:21.990Z,27.90
2019-02-22T01:24:02.761Z,27.37
2019-02-22T01:26:43.509Z,30.50
2019-02-22T01:29:24.157Z,28.23
2019-02-22T01:32:04.795Z,28.40
2019-02-22T01:34:45.658Z,26.97
2019-02-22T01:37:26.184Z,28.97
2019-02-22T01:40:06.843Z,27.83
2019-02-22T01:42:47.699Z,27.80
2019-02-22T01:45:28.040Z,28.93
2019-02-22T01:48:08.839Z,30.70
2019-02-22T01:50:49.310Z,31.73
2019-02-22T01:53:30.643Z,29.30
2019-02-22T01:56:11.358Z,31.30
2019-02-22T01:58:52.219Z,30.00
2019-02-22T02:01:32.650Z,30.70
2019-02-22T02:04:13.495Z,30.00
2019-02-22T02:06:53.836Z,30.87
2019-02-22T02:09:34.840Z,29.73
2019-02-22T02:12:15.696Z,32.30
2019-02-22T02:14:56.182Z,30.80
2019-02-22T02:17:36.809Z,30.20
2019-02-22T02:20:17.612Z,29.93
2019-02-22T02:22:58.436Z,30.67
2019-02-22T02:25:39.408Z,30.23
2019-02-22T02:28:20.218Z,29.27
2019-02-22T02:30:48.981Z,30.00
2019-02-22T02:33:17.763Z,30.60
2019-02-22T02:36:05.755Z,29.97
2019-02-22T02:38:53.750Z,30.23
2019-02-22T02:41:41.847Z,30.90
2019-02-22T02:44:49.065Z,30.13
2019-02-22T02:47:37.067Z,31.57
2019-02-22T02:50:25.334Z,29.07
2019-02-22T02:53:13.661Z,28.57
2019-02-22T02:56:01.656Z,29.97
2019-02-22T02:58:49.661Z,29.77
2019-02-22T03:01:37.672Z,33.53
2019-02-22T03:04:25.660Z,31.73
2019-02-22T03:07:32.739Z,30.30
2019-02-22T03:10:20.737Z,28.43
2019-02-22T03:13:08.740Z,28.83
2019-02-22T03:15:56.727Z,28.40
2019-02-22T03:18:44.724Z,29.33
2019-02-22T03:21:32.711Z,28.30
2019-02-22T03:24:13.774Z,28.50
2019-02-22T03:26:54.115Z,29.47
2019-02-22T03:29:34.708Z,30.17
2019-02-22T03:32:15.326Z,28.60
2019-02-22T03:34:55.872Z,30.97
2019-02-22T03:37:37.333Z,32.03
2019-02-22T03:40:18.511Z,31.67
2019-02-22T03:42:59.130Z,31.43
2019-02-22T03:45:40.006Z,32.40
2019-02-22T03:48:20.408Z,29.80
2019-02-22T03:51:01.405Z,30.53
2019-02-22T03:54:01.017Z,30.47
2019-02-22T03:56:41.550Z,28.60
2019-02-22T03:59:22.318Z,30.93
2019-02-22T04:02:02.823Z,28.30
2019-02-22T04:04:43.494Z,33.17
2019-02-22T04:07:24.228Z,29.63
2019-02-22T04:10:04.914Z,29.90
2019-02-22T04:12:45.486Z,30.47
2019-02-22T04:15:26.143Z,30.77
2019-02-22T04:18:06.987Z,28.33
2019-02-22T04:20:47.891Z,27.87
2019-02-22T04:23:28.667Z,27.60
2019-02-22T04:26:09.420Z,31.03
2019-02-22T04:28:53.727Z,29.77
2019-02-22T04:31:34.768Z,28.00
2019-02-22T04:34:15.264Z,26.27
2019-02-22T04:36:56.037Z,29.73
2019-02-22T04:39:36.893Z,29.90
2019-02-22T04:42:17.795Z,27.70
2019-02-22T04:44:58.483Z,31.73
2019-02-22T04:47:39.411Z,32.10
2019-02-22T04:50:21.245Z,30.37
2019-02-22T04:53:02.511Z,30.03
2019-02-22T04:55:43.225Z,30.47
2019-02-22T04:58:24.031Z,28.63
2019-02-22T05:01:04.431Z,26.83
2019-02-22T05:03:45.132Z,25.47
2019-02-22T05:06:26.081Z,25.00
2019-02-22T05:09:06.705Z,24.77
2019-02-22T05:11:47.788Z,23.00
2019-02-22T05:14:28.419Z,25.13
2019-02-22T05:17:09.121Z,20.10
2019-02-22T05:19:50.072Z,20.57
2019-02-22T05:22:30.763Z,19.60
2019-02-22T05:25:11.425Z,20.63
2019-02-22T05:27:52.247Z,19.40
2019-02-22T05:30:36.446Z,19.13
2019-02-22T05:33:16.287Z,19.57
2019-02-22T05:35:57.262Z,20.57
2019-02-22T05:38:37.924Z,20.77
2019-02-22T05:41:18.371Z,18.77
2019-02-22T05:43:59.132Z,19.80
2019-02-22T05:46:39.834Z,18.00
2019-02-22T05:49:22.306Z,20.50
2019-02-22T05:52:03.390Z,19.33
2019-02-22T05:54:44.119Z,19.13
2019-02-22T05:57:24.857Z,21.17
2019-02-22T06:00:05.754Z,19.47
2019-02-22T06:02:47.140Z,19.23
2019-02-22T06:05:28.376Z,20.00
2019-02-22T06:08:09.273Z,21.60
2019-02-22T06:10:38.160Z,21.57
2019-02-22T06:13:26.144Z,21.47
2019-02-22T06:16:14.149Z,19.40
2019-02-22T06:19:02.454Z,19.13
2019-02-22T06:21:50.704Z,20.60
2019-02-22T06:24:31.732Z,20.63
2019-02-22T06:27:12.466Z,19.10
2019-02-22T06:29:53.168Z,19.10
2019-02-22T06:32:33.908Z,19.57
2019-02-22T06:35:14.527Z,19.53
2019-02-22T06:37:55.479Z,20.10
2019-02-22T06:40:36.369Z,18.63
2019-02-22T06:43:17.066Z,20.03
2019-02-22T06:45:57.702Z,21.57
2019-02-22T06:48:38.459Z,21.90
2019-02-22T06:51:19.643Z,19.27
2019-02-22T06:54:00.163Z,19.03
2019-02-22T06:56:41.002Z,19.70
2019-02-22T06:59:21.897Z,22.00
2019-02-22T07:02:02.617Z,19.50
2019-02-22T07:04:43.391Z,19.93
2019-02-22T07:07:24.126Z,19.87
2019-02-22T07:10:04.820Z,20.10
2019-02-22T07:12:56.588Z,20.50
2019-02-22T07:15:31.286Z,21.73
2019-02-22T07:18:12.036Z,19.10
2019-02-22T07:20:52.961Z,20.00
2019-02-22T07:23:33.705Z,19.30
2019-02-22T07:26:14.347Z,18.73
2019-02-22T07:28:55.366Z,17.80
2019-02-22T07:31:36.148Z,20.00
2019-02-22T07:34:17.103Z,19.77
2019-02-22T07:36:57.443Z,19.97
2019-02-22T07:39:38.110Z,19.93
2019-02-22T07:42:18.533Z,22.40
2019-02-22T07:44:59.008Z,24.40
2019-02-22T07:47:39.602Z,21.13
2019-02-22T07:50:20.018Z,18.77
2019-02-22T07:53:00.854Z,18.13
2019-02-22T07:55:41.341Z,18.93
2019-02-22T07:58:22.100Z,18.30
2019-02-22T08:01:02.811Z,18.30
2019-02-22T08:03:43.634Z,16.80
2019-02-22T08:06:24.561Z,18.80
2019-02-22T08:09:05.362Z,22.07
2019-02-22T08:11:47.525Z,22.73
2019-02-22T08:14:28.539Z,18.33
2019-02-22T08:17:09.128Z,17.07
2019-02-22T08:19:49.630Z,16.50
2019-02-22T08:22:30.486Z,15.90
2019-02-22T08:25:11.083Z,16.97
2019-02-22T08:27:54.157Z,17.33
2019-02-22T08:30:34.475Z,16.50
2019-02-22T08:33:15.077Z,17.63
2019-02-22T08:35:55.630Z,16.90
2019-02-22T08:38:36.362Z,17.50
2019-02-22T08:41:17.185Z,16.67
2019-02-22T08:43:58.055Z,16.00
2019-02-22T08:46:38.833Z,18.60
2019-02-22T08:49:19.617Z,15.83
2019-02-22T08:52:00.600Z,17.90
2019-02-22T08:54:47.121Z,17.40
2019-02-22T08:57:24.406Z,18.20
2019-02-22T09:00:05.138Z,17.40
2019-02-22T09:02:46.302Z,17.97
2019-02-22T09:05:26.645Z,18.40
2019-02-22T09:08:07.770Z,14.87
2019-02-22T09:10:57.527Z,15.43
2019-02-22T09:13:42.808Z,14.60
2019-02-22T09:16:13.924Z,13.90
2019-02-22T09:18:54.630Z,11.60
2019-02-22T09:21:35.087Z,13.23
2019-02-22T09:24:15.881Z,12.47
2019-02-22T09:26:56.999Z,12.43
2019-02-22T09:29:37.518Z,14.33
2019-02-22T09:32:20.203Z,12.93
2019-02-22T09:35:00.824Z,11.93
2019-02-22T09:37:41.792Z,12.43
2019-02-22T09:40:22.216Z,14.23
2019-02-22T09:43:03.335Z,12.90
2019-02-22T09:45:43.835Z,15.07
2019-02-22T09:48:24.735Z,11.80
2019-02-22T09:51:05.393Z,11.03
2019-02-22T09:53:34.245Z,11.60
2019-02-22T09:56:22.831Z,11.80
2019-02-22T09:59:11.369Z,9.73
2019-02-22T10:01:59.391Z,6.90
2019-02-22T10:04:54.680Z,8.67
2019-02-22T10:07:37.199Z,8.17
2019-02-22T10:10:25.170Z,7.70
2019-02-22T10:13:13.430Z,9.40
2019-02-22T10:16:01.423Z,9.67
2019-02-22T10:18:49.971Z,10.20
2019-02-22T10:21:37.957Z,10.77
2019-02-22T10:24:19.363Z,10.73
2019-02-22T10:27:00.072Z,11.10
2019-02-22T10:29:40.722Z,11.80
2019-02-22T10:32:21.291Z,11.57
2019-02-22T10:35:02.210Z,10.60
2019-02-22T10:37:42.954Z,12.70
2019-02-22T10:40:23.958Z,12.00
2019-02-22T10:43:04.705Z,12.17
2019-02-22T10:45:45.483Z,11.13
2019-02-22T10:48:25.990Z,12.23
2019-02-22T10:51:06.499Z,13.13
2019-02-22T10:53:47.130Z,11.50
2019-02-22T10:56:28.447Z,13.60
2019-02-22T10:59:09.643Z,12.97
2019-02-22T11:01:50.399Z,13.07
2019-02-22T11:04:31.080Z,12.00
2019-02-22T11:07:11.687Z,12.77
2019-02-22T11:09:52.362Z,10.60
2019-02-22T11:12:32.822Z,9.50
2019-02-22T11:15:13.900Z,9.67
2019-02-22T11:17:54.222Z,10.57
2019-02-22T11:20:35.219Z,9.00
2019-02-22T11:23:15.731Z,8.37
2019-02-22T11:25:56.326Z,8.60
2019-02-22T11:28:37.079Z,8.20
2019-02-22T11:31:17.955Z,8.90
2019-02-22T11:33:58.569Z,9.23
2019-02-22T11:36:39.491Z,7.90
2019-02-22T11:39:20.346Z,8.23
2019-02-22T11:42:01.020Z,9.30
2019-02-22T11:44:41.866Z,9.70
2019-02-22T11:47:22.832Z,9.60
2019-02-22T11:50:04.111Z,9.07
2019-02-22T11:52:45.065Z,10.23
2019-02-22T11:55:25.711Z,10.10
2019-02-22T11:58:06.301Z,9.60
2019-02-22T12:00:47.036Z,10.23
2019-02-22T12:03:27.658Z,10.40
2019-02-22T12:06:08.355Z,9.80
2019-02-22T12:08:49.192Z,11.50
2019-02-22T12:11:29.754Z,11.37
2019-02-22T12:14:10.583Z,11.73
2019-02-22T12:16:51.272Z,11.23
2019-02-22T12:19:31.553Z,11.63
2019-02-22T12:22:12.255Z,11.27
2019-02-22T12:24:52.896Z,11.30
2019-02-22T12:27:33.708Z,12.37
2019-02-22T12:30:14.398Z,12.83
2019-02-22T12:32:55.452Z,12.83
2019-02-22T12:35:36.246Z,10.70
2019-02-22T12:38:16.910Z,11.20
2019-02-22T12:40:57.700Z,11.17
2019-02-22T12:43:38.664Z,11.50
2019-02-22T12:46:19.497Z,10.83
2019-02-22T12:49:00.260Z,10.03
2019-02-22T12:51:40.743Z,11.00
2019-02-22T12:54:21.769Z,11.70
2019-02-22T12:57:02.419Z,10.57
2019-02-22T12:59:42.884Z,10.90
2019-02-22T13:02:23.610Z,11.63
2019-02-22T13:05:04.295Z,11.20
2019-02-22T13:07:44.938Z,11.87
2019-02-22T13:10:25.927Z,12.33
2019-02-22T13:13:06.561Z,11.80
2019-02-22T13:15:47.631Z,14.13
2019-02-22T13:18:28.266Z,13.57
2019-02-22T13:21:09.001Z,11.57
2019-02-22T13:23:49.927Z,13.90
2019-02-22T13:26:30.580Z,12.77
2019-02-22T13:29:11.030Z,12.33
2019-02-22T13:31:53.383Z,12.47
2019-02-22T13:34:34.653Z,13.40
2019-02-22T13:37:15.562Z,12.30
2019-02-22T13:39:56.075Z,13.03
2019-02-22T13:42:36.928Z,13.40
2019-02-22T13:45:26.039Z,11.90
2019-02-22T13:48:00.486Z,12.60
2019-02-22T13:50:41.018Z,13.37
2019-02-22T13:53:21.607Z,12.20
2019-02-22T13:56:02.307Z,12.90
2019-02-22T13:58:43.235Z,12.23
2019-02-22T14:01:24.204Z,14.33
2019-02-22T14:04:05.043Z,14.67
2019-02-22T14:06:45.628Z,14.50
2019-02-22T14:09:26.126Z,14.37
2019-02-22T14:12:06.744Z,15.63
2019-02-22T14:14:47.932Z,15.17
2019-02-22T14:17:29.006Z,15.97
2019-02-22T14:20:09.667Z,15.33
2019-02-22T14:22:50.250Z,17.10
2019-02-22T14:25:31.026Z,17.90
2019-02-22T14:28:12.267Z,16.73
2019-02-22T14:30:53.282Z,16.70
2019-02-22T14:33:34.283Z,17.07
2019-02-22T14:36:14.659Z,16.80
2019-02-22T14:38:55.489Z,16.63
2019-02-22T14:41:37.441Z,16.43
2019-02-22T14:44:18.920Z,15.70
2019-02-22T14:46:59.730Z,15.40
2019-02-22T14:49:40.233Z,15.80
2019-02-22T14:52:20.759Z,16.07
2019-02-22T14:55:01.371Z,15.97
2019-02-22T14:57:44.814Z,17.77
2019-02-22T15:00:24.970Z,17.10
2019-02-22T15:03:06.517Z,17.80
2019-02-22T15:05:47.748Z,17.53
2019-02-22T15:08:28.863Z,17.00
2019-02-22T15:11:09.776Z,19.50
2019-02-22T15:13:50.519Z,18.60
2019-02-22T15:16:50.356Z,22.17
2019-02-22T15:19:31.539Z,18.40
2019-02-22T15:22:12.183Z,21.40
2019-02-22T15:24:53.778Z,21.90
2019-02-22T15:27:36.370Z,21.10
2019-02-22T15:30:17.328Z,22.33
2019-02-22T15:32:57.789Z,18.90
2019-02-22T15:35:38.319Z,20.53
2019-02-22T15:38:19.134Z,20.40
2019-02-22T15:40:59.482Z,19.83
2019-02-22T15:43:40.848Z,20.70
2019-02-22T15:46:21.771Z,22.20
2019-02-22T15:49:02.838Z,19.90
2019-02-22T15:51:43.488Z,19.03
2019-02-22T15:54:24.797Z,19.10
2019-02-22T15:57:06.015Z,19.20
2019-02-22T15:59:46.602Z,17.60
2019-02-22T16:02:27.659Z,16.57
2019-02-22T16:05:12.471Z,18.33
2019-02-22T16:07:53.622Z,15.50
2019-02-22T16:10:34.188Z,17.50
2019-02-22T16:13:14.683Z,16.30
2019-02-22T16:15:55.189Z,17.00
2019-02-22T16:18:35.916Z,19.67
2019-02-22T16:21:16.446Z,18.10
2019-02-22T16:23:57.415Z,17.37
2019-02-22T16:26:38.072Z,18.47
2019-02-22T16:29:18.976Z,18.67
2019-02-22T16:31:59.866Z,17.00
2019-02-22T16:34:43.675Z,17.80
2019-02-22T16:37:24.064Z,16.73
2019-02-22T16:40:04.391Z,18.70
2019-02-22T16:42:45.116Z,17.60
2019-02-22T16:45:26.037Z,17.60
2019-02-22T16:48:06.597Z,16.33
2019-02-22T16:50:47.439Z,17.20
2019-02-22T16:53:28.975Z,16.73
2019-02-22T16:56:09.469Z,16.70
2019-02-22T16:58:50.102Z,16.60
2019-02-22T17:01:30.495Z,16.77
2019-02-22T17:04:13.042Z,16.83
2019-02-22T17:06:53.891Z,13.13
2019-02-22T17:09:34.834Z,15.67
2019-02-22T17:12:16.201Z,16.03
2019-02-22T17:14:57.078Z,14.93
2019-02-22T17:17:37.780Z,15.60
2019-02-22T17:20:18.758Z,15.13
2019-02-22T17:22:59.359Z,14.63
2019-02-22T17:25:40.174Z,15.03
2019-02-22T17:28:20.907Z,15.63
2019-02-22T17:31:01.958Z,14.83
2019-02-22T17:33:42.521Z,15.50
2019-02-22T17:36:26.840Z,15.87
2019-02-22T17:39:05.932Z,13.83
2019-02-22T17:41:46.700Z,16.77
2019-02-22T17:44:27.439Z,14.60
2019-02-22T17:47:07.767Z,15.90
2019-02-22T17:49:48.419Z,14.60
2019-02-22T17:52:31.789Z,14.90
2019-02-22T17:55:11.720Z,15.47
2019-02-22T17:57:52.302Z,14.40
2019-02-22T18:00:36.203Z,14.60
2019-02-22T18:03:17.512Z,14.50
2019-02-22T18:05:58.287Z,15.40
2019-02-22T18:08:39.222Z,14.20
2019-02-22T18:11:19.730Z,16.23
2019-02-22T18:14:00.809Z,14.23
2019-02-22T18:16:41.282Z,14.00
2019-02-22T18:19:27.792Z,14.10
2019-02-22T18:22:09.002Z,14.27
2019-02-22T18:24:49.739Z,13.30
2019-02-22T18:27:30.763Z,15.63
2019-02-22T18:30:12.023Z,14.00
2019-02-22T18:32:53.555Z,15.10
2019-02-22T18:35:34.535Z,13.20
2019-02-22T18:38:15.429Z,13.43
2019-02-22T18:40:56.650Z,15.03
2019-02-22T18:43:37.434Z,13.30
2019-02-22T18:46:17.757Z,12.90
2019-02-22T18:48:58.374Z,14.00
2019-02-22T18:51:39.062Z,13.70
2019-02-22T18:57:29.593Z,14.50
2019-02-22T19:00:11.369Z,14.13
2019-02-22T19:02:52.539Z,13.27
2019-02-22T19:05:33.422Z,13.17
2019-02-22T19:08:14.213Z,12.43
2019-02-22T19:10:55.001Z,12.50
2019-02-22T19:13:35.852Z,14.80
2019-02-22T19:16:16.699Z,14.73
2019-02-22T19:18:58.065Z,14.40
2019-02-22T19:21:38.454Z,14.67
2019-02-22T19:24:19.316Z,14.47
2019-02-22T19:26:59.686Z,15.13
2019-02-22T19:29:40.647Z,13.90
2019-02-22T19:32:21.901Z,14.90
2019-02-22T19:35:03.187Z,14.70
2019-02-22T19:37:43.836Z,13.80
2019-02-22T19:40:24.479Z,15.57
2019-02-22T19:43:05.683Z,15.13
2019-02-22T19:45:46.178Z,13.87
2019-02-22T19:48:26.972Z,13.10
2019-02-22T19:51:07.557Z,14.53
2019-02-22T19:53:48.333Z,14.03
2019-02-22T19:56:29.040Z,12.80
2019-02-22T20:01:59.522Z,13.80
2019-02-22T20:04:40.087Z,11.80
2019-02-22T20:07:20.735Z,11.57
2019-02-22T20:10:01.773Z,12.80
2019-02-22T20:12:42.163Z,14.03
2019-02-22T20:15:23.152Z,14.90
2019-02-22T20:18:04.339Z,15.30
2019-02-22T20:20:45.770Z,14.97
2019-02-22T20:23:27.127Z,14.63
2019-02-22T20:26:07.749Z,14.10
2019-02-22T20:28:48.721Z,12.90
2019-02-22T20:31:29.388Z,12.33
2019-02-22T20:34:10.240Z,12.37
2019-02-22T20:36:51.220Z,11.13
2019-02-22T20:39:32.467Z,12.50
2019-02-22T20:42:12.978Z,11.13
2019-02-22T20:44:54.510Z,12.13
2019-02-22T20:47:35.305Z,12.37
2019-02-22T20:50:16.030Z,11.83
2019-02-22T20:52:56.733Z,13.90
2019-02-22T20:55:37.520Z,13.43
2019-02-22T20:58:18.380Z,11.60
2019-02-22T21:00:59.479Z,13.13
2019-02-22T21:03:40.324Z,12.83
2019-02-22T21:06:21.721Z,13.63
2019-02-22T21:09:02.319Z,13.60
2019-02-22T21:11:42.972Z,12.93
2019-02-22T21:14:24.170Z,12.83
2019-02-22T21:17:04.774Z,12.17
2019-02-22T21:19:45.743Z,12.87
2019-02-22T21:22:26.515Z,13.67
2019-02-22T21:25:07.298Z,13.53
2019-02-22T21:27:48.001Z,11.50
2019-02-22T21:30:28.775Z,12.03
2019-02-22T21:33:09.234Z,12.70
2019-02-22T21:35:50.759Z,12.23
2019-02-22T21:38:31.378Z,12.10
2019-02-22T21:41:12.310Z,13.67
2019-02-22T21:43:53.151Z,13.40
2019-02-22T21:46:34.773Z,12.63
2019-02-22T21:49:16.164Z,12.67
2019-02-22T21:51:56.901Z,12.40
2019-02-22T21:54:37.709Z,12.53
2019-02-22T21:57:18.381Z,12.70
2019-02-22T21:59:59.460Z,11.50
2019-02-22T22:02:39.950Z,13.00
2019-02-22T22:05:20.689Z,10.80
2019-02-22T22:08:01.582Z,11.47
2019-02-22T22:10:42.234Z,10.10
2019-02-22T22:13:22.845Z,9.43
2019-02-22T22:16:03.749Z,10.10
2019-02-22T22:18:44.589Z,9.70
2019-02-22T22:21:25.143Z,9.73
2019-02-22T22:24:06.709Z,9.53
2019-02-22T22:26:47.330Z,10.23
2019-02-22T22:29:27.970Z,9.50
2019-02-22T22:32:08.757Z,9.07
2019-02-22T22:34:49.381Z,8.53
2019-02-22T22:37:30.077Z,8.33
2019-02-22T22:40:10.892Z,8.73
2019-02-22T22:42:51.817Z,7.17
2019-02-22T22:45:32.654Z,8.00
2019-02-22T22:48:13.702Z,6.60
2019-02-22T22:50:54.646Z,9.50
2019-02-22T22:53:35.081Z,11.73
2019-02-22T22:56:15.847Z,11.73
2019-02-22T22:58:56.197Z,11.00
2019-02-22T23:01:36.865Z,11.30
2019-02-22T23:04:17.690Z,9.90
2019-02-22T23:06:59.003Z,11.20
2019-02-22T23:09:39.747Z,11.53
2019-02-22T23:12:20.478Z,10.77
2019-02-22T23:15:01.237Z,11.40
2019-02-22T23:17:42.045Z,10.07
2019-02-22T23:20:22.688Z,10.17
2019-02-22T23:23:03.552Z,10.03
2019-02-22T23:25:44.517Z,10.27
2019-02-22T23:28:25.510Z,10.67
2019-02-22T23:31:06.524Z,11.27
2019-02-22T23:33:47.485Z,9.90
2019-02-22T23:36:28.207Z,10.13
2019-02-22T23:39:08.953Z,10.53
2019-02-22T23:41:50.129Z,10.10
2019-02-22T23:44:31.388Z,9.70
2019-02-22T23:47:12.079Z,10.73
2019-02-22T23:49:52.952Z,11.00
2019-02-22T23:52:34.016Z,8.93
2019-02-22T23:55:14.448Z,10.90
2019-02-22T23:57:54.923Z,9.87
